createdAt,value
2018-12-17T00:03:02.968Z,60.17
2018-12-17T00:06:08.037Z,53.50
2018-12-17T00:09:12.337Z,53.00
2018-12-17T00:12:16.626Z,47.00
2018-12-17T00:15:20.142Z,55.67
2018-12-17T00:18:24.265Z,50.87
2018-12-17T00:21:27.439Z,54.20
2018-12-17T00:24:30.635Z,53.13
2018-12-17T00:27:33.837Z,53.10
2018-12-17T00:30:37.062Z,54.83
2018-12-17T00:33:40.227Z,51.33
2018-12-17T00:36:43.542Z,57.33
2018-12-17T00:39:46.710Z,55.47
2018-12-17T00:42:49.927Z,55.67
2018-12-17T00:45:54.009Z,53.03
2018-12-17T00:48:57.225Z,57.00
2018-12-17T00:52:00.529Z,56.73
2018-12-17T00:55:04.063Z,55.33
2018-12-17T00:58:07.349Z,51.97
2018-12-17T01:01:10.616Z,55.03
2018-12-17T01:04:13.836Z,52.07
2018-12-17T01:07:19.027Z,55.13
2018-12-17T01:10:22.194Z,50.77
2018-12-17T01:13:25.366Z,52.70
2018-12-17T01:16:28.566Z,58.03
2018-12-17T01:19:31.874Z,52.23
2018-12-17T01:22:35.136Z,54.53
2018-12-17T01:25:38.350Z,51.13
2018-12-17T01:28:41.826Z,52.10
2018-12-17T01:31:45.287Z,50.90
2018-12-17T01:34:48.530Z,51.27
2018-12-17T01:37:51.736Z,53.73
2018-12-17T01:40:54.902Z,50.90
2018-12-17T01:43:58.098Z,52.60
2018-12-17T01:47:01.431Z,52.10
2018-12-17T01:50:05.118Z,52.07
2018-12-17T01:53:08.290Z,51.83
2018-12-17T01:56:11.510Z,55.03
2018-12-17T01:59:14.714Z,59.10
2018-12-17T02:02:18.026Z,48.87
2018-12-17T02:05:21.364Z,49.87
2018-12-17T02:08:24.668Z,49.17
2018-12-17T02:11:29.349Z,53.43
2018-12-17T02:14:32.543Z,52.70
2018-12-17T02:17:36.734Z,50.00
2018-12-17T02:20:40.869Z,54.63
2018-12-17T02:23:44.030Z,49.80
2018-12-17T02:26:47.299Z,50.13
2018-12-17T02:29:50.546Z,52.53
2018-12-17T02:32:53.825Z,54.17
2018-12-17T02:35:57.079Z,53.53
2018-12-17T02:39:00.343Z,56.10
2018-12-17T02:42:03.694Z,52.47
2018-12-17T02:45:07.148Z,53.60
2018-12-17T02:48:10.430Z,49.37
2018-12-17T02:51:13.584Z,51.73
2018-12-17T02:54:17.004Z,53.63
2018-12-17T02:57:21.358Z,50.43
2018-12-17T03:00:24.638Z,51.10
2018-12-17T03:03:27.804Z,56.33
2018-12-17T03:06:31.123Z,49.53
2018-12-17T03:09:34.330Z,48.57
2018-12-17T03:12:37.505Z,51.60
2018-12-17T03:15:40.721Z,46.23
2018-12-17T03:18:43.895Z,53.23
2018-12-17T03:21:47.090Z,53.57
2018-12-17T03:24:50.268Z,52.70
2018-12-17T03:27:53.558Z,56.43
2018-12-17T03:30:57.032Z,49.83
2018-12-17T03:34:00.327Z,54.20
2018-12-17T03:37:03.480Z,50.10
2018-12-17T03:40:06.749Z,55.73
2018-12-17T03:43:09.992Z,53.43
2018-12-17T03:46:13.171Z,49.37
2018-12-17T03:49:16.398Z,48.53
2018-12-17T03:52:19.567Z,51.70
2018-12-17T03:55:22.757Z,50.20
2018-12-17T03:58:25.955Z,52.63
2018-12-17T04:01:29.169Z,49.13
2018-12-17T04:04:32.354Z,48.20
2018-12-17T04:07:35.525Z,49.87
2018-12-17T04:10:39.944Z,51.63
2018-12-17T04:13:43.886Z,49.13
2018-12-17T04:16:47.045Z,51.17
2018-12-17T04:19:50.293Z,50.63
2018-12-17T04:22:53.457Z,50.27
2018-12-17T04:25:56.749Z,54.57
2018-12-17T04:29:06.579Z,53.70
2018-12-17T04:32:05.127Z,50.17
2018-12-17T04:35:08.369Z,55.00
2018-12-17T04:38:11.565Z,51.93
2018-12-17T04:41:14.771Z,52.30
2018-12-17T04:44:18.181Z,51.00
2018-12-17T04:47:23.029Z,48.83
2018-12-17T04:50:26.714Z,53.93
2018-12-17T04:53:29.911Z,50.27
2018-12-17T04:56:33.105Z,54.63
2018-12-17T04:59:36.299Z,52.10
2018-12-17T05:02:42.081Z,52.07
2018-12-17T05:05:45.249Z,54.70
2018-12-17T05:08:48.415Z,56.60
2018-12-17T05:11:51.918Z,51.37
2018-12-17T05:14:55.197Z,53.27
2018-12-17T05:17:58.346Z,48.97
2018-12-17T05:21:01.577Z,52.40
2018-12-17T05:24:04.745Z,52.20
2018-12-17T05:27:07.902Z,49.17
2018-12-17T05:30:11.915Z,51.77
2018-12-17T05:33:15.188Z,53.10
2018-12-17T05:36:18.369Z,56.87
2018-12-17T05:39:22.761Z,50.53
2018-12-17T05:42:25.923Z,51.17
2018-12-17T05:45:29.128Z,49.73
2018-12-17T05:48:32.340Z,53.20
2018-12-17T05:51:35.660Z,56.93
2018-12-17T05:54:39.020Z,53.70
2018-12-17T05:57:42.225Z,50.67
2018-12-17T06:00:45.516Z,52.50
2018-12-17T06:03:49.546Z,53.93
2018-12-17T06:06:52.777Z,51.10
2018-12-17T06:09:56.078Z,49.83
2018-12-17T06:12:59.316Z,51.20
2018-12-17T06:16:02.686Z,51.03
2018-12-17T06:19:06.038Z,50.57
2018-12-17T06:22:09.590Z,52.20
2018-12-17T06:25:12.803Z,52.17
2018-12-17T06:28:15.998Z,52.63
2018-12-17T06:31:19.236Z,52.27
2018-12-17T06:34:22.552Z,51.80
2018-12-17T06:37:25.800Z,50.90
2018-12-17T06:40:29.081Z,56.93
2018-12-17T06:43:32.290Z,53.83
2018-12-17T06:46:35.460Z,54.20
2018-12-17T06:49:38.709Z,53.77
2018-12-17T06:52:42.004Z,53.53
2018-12-17T06:55:45.305Z,53.97
2018-12-17T06:58:48.595Z,53.03
2018-12-17T07:01:52.267Z,53.10
2018-12-17T07:04:55.676Z,52.23
2018-12-17T07:07:58.965Z,50.20
2018-12-17T07:11:02.163Z,52.83
2018-12-17T07:14:05.517Z,52.80
2018-12-17T07:17:08.769Z,48.73
2018-12-17T07:20:11.938Z,53.13
2018-12-17T07:23:15.169Z,53.90
2018-12-17T07:26:18.601Z,54.00
2018-12-17T07:29:22.052Z,53.77
2018-12-17T07:32:25.373Z,50.73
2018-12-17T07:35:28.639Z,57.03
2018-12-17T07:38:31.931Z,59.33
2018-12-17T07:41:35.242Z,53.93
2018-12-17T07:44:38.429Z,53.40
2018-12-17T07:47:41.608Z,52.70
2018-12-17T07:50:44.881Z,53.43
2018-12-17T07:53:48.122Z,53.47
2018-12-17T07:56:51.306Z,48.37
2018-12-17T07:59:56.903Z,56.40
2018-12-17T08:02:59.684Z,51.77
2018-12-17T08:06:02.852Z,54.73
2018-12-17T08:09:07.790Z,51.90
2018-12-17T08:12:11.003Z,54.70
2018-12-17T08:15:14.174Z,55.57
2018-12-17T08:18:25.276Z,53.07
2018-12-17T08:21:28.664Z,52.90
2018-12-17T08:24:31.853Z,50.93
2018-12-17T08:27:35.154Z,50.83
2018-12-17T08:30:38.330Z,55.70
2018-12-17T08:33:41.572Z,51.60
2018-12-17T08:36:45.943Z,55.67
2018-12-17T08:39:50.491Z,56.20
2018-12-17T08:42:53.756Z,53.23
2018-12-17T08:45:57.080Z,50.40
2018-12-17T08:49:00.286Z,51.40
2018-12-17T08:52:03.545Z,54.10
2018-12-17T08:55:06.965Z,57.17
2018-12-17T08:58:10.219Z,59.57
2018-12-17T09:01:13.457Z,57.73
2018-12-17T09:04:17.012Z,52.67
2018-12-17T09:07:20.237Z,58.77
2018-12-17T09:10:23.404Z,60.87
2018-12-17T09:13:26.627Z,58.60
2018-12-17T09:16:29.829Z,61.90
2018-12-17T09:19:33.047Z,61.17
2018-12-17T09:22:37.665Z,60.27
2018-12-17T09:25:40.949Z,60.90
2018-12-17T09:28:44.159Z,58.10
2018-12-17T09:31:47.345Z,58.30
2018-12-17T09:34:50.566Z,59.27
2018-12-17T09:37:53.733Z,61.07
2018-12-17T09:40:57.039Z,56.50
2018-12-17T09:44:00.202Z,61.40
2018-12-17T09:47:03.531Z,56.90
2018-12-17T09:50:07.182Z,62.43
2018-12-17T09:53:10.454Z,65.47
2018-12-17T09:56:13.732Z,61.83
2018-12-17T09:59:16.982Z,58.57
2018-12-17T10:02:20.300Z,55.13
2018-12-17T10:05:23.496Z,51.33
2018-12-17T10:08:26.902Z,58.80
2018-12-17T10:11:30.086Z,72.40
2018-12-17T10:14:33.254Z,70.87
2018-12-17T10:17:37.718Z,57.70
2018-12-17T10:20:40.883Z,69.77
2018-12-17T10:23:44.362Z,65.77
2018-12-17T10:26:49.033Z,63.07
2018-12-17T10:29:52.256Z,59.50
2018-12-17T10:32:55.546Z,65.03
2018-12-17T10:35:58.864Z,64.93
2018-12-17T10:39:02.053Z,65.23
2018-12-17T10:42:05.431Z,68.70
2018-12-17T10:45:08.944Z,72.10
2018-12-17T10:48:12.106Z,63.27
2018-12-17T10:51:15.400Z,67.83
2018-12-17T10:54:18.813Z,63.07
2018-12-17T10:57:22.008Z,63.63
2018-12-17T11:00:30.951Z,62.27
2018-12-17T11:03:58.554Z,62.60
2018-12-17T11:07:02.076Z,61.70
2018-12-17T11:10:05.930Z,62.77
2018-12-17T11:13:09.619Z,63.33
2018-12-17T11:16:13.029Z,66.50
2018-12-17T11:19:16.186Z,62.93
2018-12-17T11:22:19.355Z,59.50
2018-12-17T11:25:22.514Z,62.57
2018-12-17T11:28:25.710Z,62.33
2018-12-17T11:31:28.897Z,62.83
2018-12-17T11:34:32.234Z,73.43
2018-12-17T11:37:35.486Z,65.07
2018-12-17T11:40:38.667Z,65.27
2018-12-17T11:43:44.039Z,58.93
2018-12-17T11:46:47.119Z,63.73
2018-12-17T11:49:50.321Z,58.03
2018-12-17T11:52:53.513Z,53.93
2018-12-17T11:55:56.724Z,55.13
2018-12-17T11:59:01.374Z,52.10
2018-12-17T12:02:04.651Z,53.50
2018-12-17T12:05:07.814Z,49.97
2018-12-17T12:08:11.140Z,48.63
2018-12-17T12:11:14.939Z,51.23
2018-12-17T12:14:18.223Z,55.37
2018-12-17T12:17:21.427Z,54.23
2018-12-17T12:20:25.732Z,52.37
2018-12-17T12:23:28.948Z,50.70
2018-12-17T12:26:32.132Z,49.83
2018-12-17T12:29:35.995Z,52.37
2018-12-17T12:32:39.367Z,48.43
2018-12-17T12:35:42.585Z,52.33
2018-12-17T12:38:45.830Z,52.70
2018-12-17T12:41:49.021Z,53.93
2018-12-17T12:44:52.201Z,55.13
2018-12-17T12:47:55.398Z,52.90
2018-12-17T12:51:02.880Z,57.07
2018-12-17T12:54:06.115Z,55.97
2018-12-17T12:57:09.297Z,54.13
2018-12-17T13:00:14.191Z,56.47
2018-12-17T13:03:17.375Z,55.87
2018-12-17T13:06:20.555Z,60.77
2018-12-17T13:09:23.818Z,58.03
2018-12-17T13:12:27.010Z,61.53
2018-12-17T13:15:30.364Z,61.13
2018-12-17T13:18:35.298Z,60.17
2018-12-17T13:21:38.570Z,65.67
2018-12-17T13:24:41.746Z,64.20
2018-12-17T13:27:45.233Z,61.93
2018-12-17T13:30:48.489Z,69.30
2018-12-17T13:33:51.863Z,57.17
2018-12-17T13:36:55.264Z,61.90
2018-12-17T13:39:58.553Z,68.33
2018-12-17T13:43:01.744Z,59.70
2018-12-17T13:46:05.039Z,65.70
2018-12-17T13:49:08.406Z,68.07
2018-12-17T13:52:17.122Z,63.90
2018-12-17T13:55:20.348Z,78.33
2018-12-17T13:58:23.526Z,72.77
2018-12-17T14:01:27.304Z,70.63
2018-12-17T14:04:31.080Z,67.57
2018-12-17T14:07:34.353Z,78.13
2018-12-17T14:10:42.901Z,68.37
2018-12-17T14:13:46.688Z,62.50
2018-12-17T14:16:55.348Z,73.63
2018-12-17T14:20:04.148Z,62.03
2018-12-17T14:23:07.733Z,58.53
2018-12-17T14:26:11.083Z,62.77
2018-12-17T14:29:14.376Z,66.97
2018-12-17T14:32:17.725Z,61.93
2018-12-17T14:35:21.008Z,54.83
2018-12-17T14:38:24.327Z,52.17
2018-12-17T14:41:27.512Z,51.43
2018-12-17T14:44:35.242Z,46.20
2018-12-17T14:47:38.583Z,50.70
2018-12-17T14:50:42.069Z,48.33
2018-12-17T14:53:45.330Z,48.50
2018-12-17T14:56:48.578Z,51.73
2018-12-17T14:59:51.771Z,48.60
2018-12-17T15:02:55.446Z,45.40
2018-12-17T15:05:58.919Z,38.47
2018-12-17T15:09:02.153Z,42.93
2018-12-17T15:12:05.636Z,37.43
2018-12-17T15:15:10.053Z,37.30
2018-12-17T15:18:13.372Z,40.50
2018-12-17T15:21:16.826Z,36.83
2018-12-17T15:24:20.696Z,38.83
2018-12-17T15:27:24.061Z,37.20
2018-12-17T15:30:28.659Z,38.77
2018-12-17T15:33:31.854Z,38.50
2018-12-17T15:36:35.053Z,39.10
2018-12-17T15:39:38.239Z,46.13
2018-12-17T15:42:41.522Z,42.03
2018-12-17T15:45:45.683Z,35.53
2018-12-17T15:48:48.863Z,38.83
2018-12-17T15:51:52.055Z,40.23
2018-12-17T15:54:55.350Z,34.37
2018-12-17T15:57:58.644Z,34.53
2018-12-17T16:01:01.936Z,34.63
2018-12-17T16:04:05.299Z,36.03
2018-12-17T16:07:08.641Z,32.07
2018-12-17T16:10:11.871Z,36.07
2018-12-17T16:13:15.152Z,30.13
2018-12-17T16:16:18.451Z,34.30
2018-12-17T16:19:21.747Z,36.13
2018-12-17T16:22:25.010Z,36.83
2018-12-17T16:25:28.307Z,33.57
2018-12-17T16:28:31.522Z,37.03
2018-12-17T16:31:34.710Z,35.97
2018-12-17T16:34:38.165Z,33.70
2018-12-17T16:37:41.394Z,37.23
2018-12-17T16:40:44.586Z,33.87
2018-12-17T16:43:47.792Z,35.30
2018-12-17T16:46:51.111Z,37.47
2018-12-17T16:49:54.437Z,41.50
2018-12-17T16:52:57.705Z,46.23
2018-12-17T16:56:01.003Z,42.33
2018-12-17T16:59:04.282Z,39.67
2018-12-17T17:02:07.563Z,46.37
2018-12-17T17:05:11.098Z,46.30
2018-12-17T17:08:14.370Z,43.23
2018-12-17T17:11:17.756Z,45.60
2018-12-17T17:14:21.267Z,46.93
2018-12-17T17:17:24.469Z,45.43
2018-12-17T17:20:28.218Z,60.33
2018-12-17T17:23:32.380Z,56.67
2018-12-17T17:26:36.103Z,45.60
2018-12-17T17:29:39.303Z,44.53
2018-12-17T17:32:42.513Z,45.70
2018-12-17T17:35:45.935Z,45.27
2018-12-17T17:38:50.308Z,41.10
2018-12-17T17:41:53.864Z,44.33
2018-12-17T17:44:57.163Z,44.90
2018-12-17T17:48:00.513Z,43.40
2018-12-17T17:51:03.797Z,42.37
2018-12-17T17:54:07.074Z,47.20
2018-12-17T17:57:10.462Z,50.00
2018-12-17T18:00:14.401Z,40.77
2018-12-17T18:03:17.966Z,40.13
2018-12-17T18:06:21.481Z,41.27
2018-12-17T18:09:24.820Z,46.07
2018-12-17T18:12:28.118Z,45.50
2018-12-17T18:15:31.477Z,48.97
2018-12-17T18:18:34.705Z,43.40
2018-12-17T18:21:38.171Z,48.60
2018-12-17T18:24:42.065Z,53.67
2018-12-17T18:27:45.268Z,49.17
2018-12-17T18:30:48.662Z,55.60
2018-12-17T18:33:52.066Z,52.07
2018-12-17T18:36:55.418Z,58.77
2018-12-17T18:39:58.947Z,51.80
2018-12-17T18:43:02.462Z,51.73
2018-12-17T18:46:06.372Z,53.97
2018-12-17T18:49:09.640Z,51.80
2018-12-17T18:52:12.854Z,50.57
2018-12-17T18:55:16.139Z,50.50
2018-12-17T18:58:19.350Z,50.00
2018-12-17T19:01:22.570Z,50.43
2018-12-17T19:04:26.009Z,53.93
2018-12-17T19:07:29.224Z,50.77
2018-12-17T19:10:37.831Z,48.60
2018-12-17T19:13:41.142Z,48.33
2018-12-17T19:16:44.452Z,50.17
2018-12-17T19:19:47.739Z,47.83
2018-12-17T19:22:51.006Z,50.67
2018-12-17T19:25:54.457Z,47.03
2018-12-17T19:28:57.698Z,46.73
2018-12-17T19:32:01.005Z,51.33
2018-12-17T19:35:04.639Z,47.10
2018-12-17T19:38:08.701Z,45.60
2018-12-17T19:41:11.991Z,44.97
2018-12-17T19:44:15.641Z,48.87
2018-12-17T19:47:18.866Z,47.13
2018-12-17T19:50:22.273Z,48.83
2018-12-17T19:53:25.593Z,48.60
2018-12-17T19:56:28.952Z,47.77
2018-12-17T19:59:32.323Z,46.90
2018-12-17T20:02:35.543Z,48.30
2018-12-17T20:05:38.907Z,49.90
2018-12-17T20:08:42.271Z,48.57
2018-12-17T20:11:45.730Z,55.57
2018-12-17T20:14:49.215Z,50.73
2018-12-17T20:17:52.687Z,57.00
2018-12-17T20:20:55.927Z,55.40
2018-12-17T20:23:59.311Z,54.90
2018-12-17T20:27:03.391Z,65.47
2018-12-17T20:30:08.608Z,60.13
2018-12-17T20:33:11.892Z,58.60
2018-12-17T20:36:15.199Z,63.63
2018-12-17T20:39:18.491Z,60.30
2018-12-17T20:42:21.847Z,59.80
2018-12-17T20:45:25.267Z,67.57
2018-12-17T20:48:28.601Z,66.67
2018-12-17T20:51:31.922Z,61.73
2018-12-17T20:54:35.269Z,64.10
2018-12-17T20:57:38.584Z,59.30
2018-12-17T21:00:41.899Z,62.20
2018-12-17T21:03:45.179Z,61.47
2018-12-17T21:06:50.100Z,67.03
2018-12-17T21:09:53.598Z,68.27
2018-12-17T21:12:56.840Z,65.63
2018-12-17T21:16:00.143Z,64.90
2018-12-17T21:19:03.369Z,65.27
2018-12-17T21:22:09.438Z,62.10
2018-12-17T21:25:12.727Z,72.07
2018-12-17T21:28:15.942Z,70.90
2018-12-17T21:31:19.735Z,70.33
2018-12-17T21:34:23.033Z,71.97
2018-12-17T21:37:26.317Z,79.33
2018-12-17T21:40:29.723Z,72.07
2018-12-17T21:43:36.006Z,69.77
2018-12-17T21:46:38.288Z,74.00
2018-12-17T21:49:41.651Z,77.87
2018-12-17T21:52:44.888Z,70.57
2018-12-17T21:55:48.162Z,68.93
2018-12-17T21:58:51.363Z,64.47
2018-12-17T22:01:54.771Z,69.37
2018-12-17T22:04:58.062Z,69.07
2018-12-17T22:08:01.352Z,82.53
2018-12-17T22:11:04.677Z,73.60
2018-12-17T22:14:07.961Z,75.50
2018-12-17T22:17:11.108Z,75.97
2018-12-17T22:20:14.487Z,81.33
2018-12-17T22:23:17.735Z,79.37
2018-12-17T22:26:20.917Z,71.03
2018-12-17T22:29:24.236Z,74.87
2018-12-17T22:32:27.537Z,77.57
2018-12-17T22:35:30.848Z,73.67
2018-12-17T22:38:34.087Z,78.40
2018-12-17T22:41:37.310Z,74.60
2018-12-17T22:44:40.611Z,76.77
2018-12-17T22:47:43.896Z,73.30
2018-12-17T22:50:47.151Z,69.27
2018-12-17T22:53:50.792Z,70.53
2018-12-17T22:56:54.011Z,72.27
2018-12-17T22:59:59.272Z,70.77
2018-12-17T23:03:02.553Z,61.23
2018-12-17T23:06:05.922Z,70.17
2018-12-17T23:09:08.457Z,75.30
2018-12-17T23:12:23.136Z,70.80
2018-12-17T23:15:37.767Z,67.20
2018-12-17T23:18:40.042Z,68.50
2018-12-17T23:21:43.211Z,67.97
2018-12-17T23:24:46.703Z,63.33
2018-12-17T23:27:50.972Z,61.47
2018-12-17T23:30:54.229Z,64.53
2018-12-17T23:33:57.397Z,63.77
2018-12-17T23:37:00.662Z,64.20
2018-12-17T23:40:04.135Z,68.43
2018-12-17T23:43:09.528Z,59.13
2018-12-17T23:46:15.061Z,57.17
2018-12-17T23:49:18.602Z,57.83
2018-12-17T23:52:22.011Z,59.60
2018-12-17T23:55:25.302Z,65.90
2018-12-17T23:58:28.826Z,58.17
